createdAt,value
2023-01-29T00:01:54.793Z,72.04
2023-01-29T00:04:21.858Z,71.87
2023-01-29T00:06:48.867Z,72.01
2023-01-29T00:09:15.807Z,71.87
2023-01-29T00:11:42.704Z,71.94
2023-01-29T00:14:09.693Z,72.14
2023-01-29T00:16:36.593Z,72.20
2023-01-29T00:19:03.897Z,71.94
2023-01-29T00:21:32.191Z,71.99
2023-01-29T00:23:59.931Z,71.99
2023-01-29T00:26:27.200Z,71.88
2023-01-29T00:28:54.206Z,72.07
2023-01-29T00:31:23.761Z,71.96
2023-01-29T00:33:50.694Z,71.88
2023-01-29T00:36:18.719Z,72.17
2023-01-29T00:38:46.487Z,72.35
2023-01-29T00:41:32.987Z,72.29
2023-01-29T00:44:19.274Z,72.34
2023-01-29T00:46:46.349Z,72.16
2023-01-29T00:49:13.679Z,72.38
2023-01-29T00:51:41.588Z,72.40
2023-01-29T00:54:11.035Z,72.25
2023-01-29T00:56:39.195Z,72.20
2023-01-29T00:59:06.383Z,72.09
2023-01-29T01:01:50.714Z,72.44
2023-01-29T01:04:17.749Z,72.31
2023-01-29T01:06:44.910Z,72.61
2023-01-29T01:09:30.743Z,72.49
2023-01-29T01:11:57.656Z,72.61
2023-01-29T01:14:25.416Z,72.55
2023-01-29T01:16:52.355Z,72.51
2023-01-29T01:19:19.440Z,72.44
2023-01-29T01:21:48.390Z,72.44
2023-01-29T01:24:16.038Z,72.76
2023-01-29T01:26:43.575Z,72.73
2023-01-29T01:29:10.500Z,72.71
2023-01-29T01:31:37.574Z,72.95
2023-01-29T01:34:04.708Z,72.74
2023-01-29T01:36:32.407Z,72.92
2023-01-29T01:38:59.427Z,72.75
2023-01-29T01:41:27.553Z,72.56
2023-01-29T01:43:57.557Z,72.72
2023-01-29T01:46:27.627Z,72.54
2023-01-29T01:48:59.810Z,72.40
2023-01-29T01:51:29.973Z,72.64
2023-01-29T01:54:02.674Z,72.56
2023-01-29T01:56:38.605Z,72.69
2023-01-29T01:59:07.011Z,72.89
2023-01-29T02:01:34.416Z,72.94
2023-01-29T02:04:22.624Z,73.03
2023-01-29T02:07:08.287Z,72.84
2023-01-29T02:09:40.426Z,72.89
2023-01-29T02:12:09.994Z,73.20
2023-01-29T02:14:40.279Z,72.89
2023-01-29T02:17:07.746Z,73.42
2023-01-29T02:19:45.733Z,73.39
2023-01-29T02:22:30.688Z,73.14
2023-01-29T02:25:12.204Z,73.08
2023-01-29T02:27:58.990Z,73.34
2023-01-29T02:30:34.666Z,73.54
2023-01-29T02:33:07.715Z,73.59
2023-01-29T02:35:42.671Z,73.53
2023-01-29T02:38:18.963Z,73.72
2023-01-29T02:40:51.977Z,73.76
2023-01-29T02:43:30.351Z,73.55
2023-01-29T02:46:07.429Z,73.61
2023-01-29T02:48:44.731Z,73.82
2023-01-29T02:51:20.287Z,73.96
2023-01-29T02:53:55.103Z,73.65
2023-01-29T02:56:29.035Z,73.73
2023-01-29T02:59:01.539Z,74.14
2023-01-29T03:01:34.800Z,73.99
2023-01-29T03:04:08.101Z,74.13
2023-01-29T03:06:40.120Z,74.02
2023-01-29T03:09:12.333Z,74.12
2023-01-29T03:11:43.563Z,74.13
2023-01-29T03:14:14.430Z,73.88
2023-01-29T03:16:46.956Z,73.94
2023-01-29T03:19:17.763Z,73.94
2023-01-29T03:21:55.460Z,74.14
2023-01-29T03:24:45.400Z,74.37
2023-01-29T03:27:33.811Z,74.01
2023-01-29T03:30:20.505Z,74.08
2023-01-29T03:32:52.457Z,74.57
2023-01-29T03:35:36.866Z,74.43
2023-01-29T03:38:07.477Z,74.39
2023-01-29T03:40:44.365Z,74.38
2023-01-29T03:43:16.223Z,74.73
2023-01-29T03:45:58.134Z,74.37
2023-01-29T03:48:35.026Z,74.46
2023-01-29T03:51:10.560Z,74.63
2023-01-29T03:53:46.155Z,74.72
2023-01-29T03:56:26.627Z,74.62
2023-01-29T03:58:58.529Z,74.40
2023-01-29T04:01:34.382Z,74.49
2023-01-29T04:04:10.313Z,74.59
2023-01-29T04:06:41.859Z,74.53
2023-01-29T04:09:14.952Z,74.52
2023-01-29T04:11:49.392Z,74.37
2023-01-29T04:14:17.540Z,74.61
2023-01-29T04:16:48.760Z,74.42
2023-01-29T04:19:31.358Z,74.38
2023-01-29T04:22:06.596Z,74.44
2023-01-29T04:24:34.718Z,74.48
2023-01-29T04:27:17.778Z,74.53
2023-01-29T04:29:58.593Z,74.46
2023-01-29T04:32:33.186Z,74.25
2023-01-29T04:35:17.994Z,74.26
2023-01-29T04:37:51.841Z,74.27
2023-01-29T04:40:27.111Z,74.29
2023-01-29T04:43:05.271Z,74.36
2023-01-29T04:45:41.700Z,74.33
2023-01-29T04:48:18.353Z,74.29
2023-01-29T04:50:48.122Z,74.51
2023-01-29T04:53:20.615Z,74.51
2023-01-29T04:55:51.066Z,74.43
2023-01-29T04:58:31.482Z,74.21
2023-01-29T05:01:00.049Z,74.32
2023-01-29T05:03:29.597Z,74.19
2023-01-29T05:05:59.310Z,74.14
2023-01-29T05:08:29.309Z,74.30
2023-01-29T05:10:58.179Z,74.41
2023-01-29T05:13:26.994Z,74.18
2023-01-29T05:15:58.967Z,74.27
2023-01-29T05:18:25.999Z,74.35
2023-01-29T05:20:57.670Z,74.07
2023-01-29T05:23:25.325Z,74.23
2023-01-29T05:25:53.097Z,74.56
2023-01-29T05:28:20.536Z,74.30
2023-01-29T05:30:49.646Z,74.28
2023-01-29T05:33:18.389Z,74.45
2023-01-29T05:35:45.662Z,74.56
2023-01-29T05:38:13.150Z,74.50
2023-01-29T05:40:40.700Z,74.43
2023-01-29T05:43:15.115Z,74.51
2023-01-29T05:45:41.867Z,74.43
2023-01-29T05:48:08.852Z,74.51
2023-01-29T05:50:36.181Z,74.62
2023-01-29T05:53:04.148Z,74.68
2023-01-29T05:55:31.525Z,74.44
2023-01-29T05:57:58.739Z,74.61
2023-01-29T06:00:25.988Z,74.49
2023-01-29T06:02:53.047Z,74.59
2023-01-29T06:05:20.035Z,74.68
2023-01-29T06:07:47.102Z,74.72
2023-01-29T06:10:16.129Z,74.86
2023-01-29T06:12:43.430Z,74.76
2023-01-29T06:15:13.454Z,74.62
2023-01-29T06:17:40.371Z,74.48
2023-01-29T06:20:09.642Z,74.56
2023-01-29T06:22:36.840Z,74.62
2023-01-29T06:25:04.400Z,74.59
2023-01-29T06:27:31.209Z,74.52
2023-01-29T06:29:58.142Z,74.71
2023-01-29T06:32:25.215Z,74.50
2023-01-29T06:34:53.470Z,74.45
2023-01-29T06:37:20.737Z,74.54
2023-01-29T06:39:47.742Z,74.35
2023-01-29T06:42:14.541Z,74.35
2023-01-29T06:44:41.339Z,74.57
2023-01-29T06:47:08.625Z,74.40
2023-01-29T06:49:35.456Z,74.35
2023-01-29T06:52:02.483Z,74.56
2023-01-29T06:54:29.514Z,74.56
2023-01-29T06:56:56.468Z,74.25
2023-01-29T06:59:23.249Z,74.30
2023-01-29T07:01:50.400Z,74.22
2023-01-29T07:04:17.327Z,74.36
2023-01-29T07:06:44.176Z,74.59
2023-01-29T07:09:12.518Z,74.43
2023-01-29T07:11:39.568Z,74.17
2023-01-29T07:14:06.376Z,74.37
2023-01-29T07:16:34.100Z,74.21
2023-01-29T07:19:01.130Z,74.17
2023-01-29T07:21:28.261Z,74.06
2023-01-29T07:23:55.299Z,74.26
2023-01-29T07:26:22.344Z,74.15
2023-01-29T07:28:55.426Z,73.92
2023-01-29T07:31:26.542Z,74.01
2023-01-29T07:33:53.541Z,74.08
2023-01-29T07:36:20.480Z,74.39
2023-01-29T07:38:52.093Z,74.13
2023-01-29T07:41:19.534Z,73.97
2023-01-29T07:43:46.731Z,74.07
2023-01-29T07:46:13.858Z,73.74
2023-01-29T07:48:40.835Z,73.96
2023-01-29T07:51:08.589Z,73.98
2023-01-29T07:53:36.174Z,73.82
2023-01-29T07:56:03.416Z,73.74
2023-01-29T07:58:30.475Z,73.42
2023-01-29T08:00:57.764Z,73.72
2023-01-29T08:03:24.550Z,73.49
2023-01-29T08:05:51.474Z,73.57
2023-01-29T08:08:19.450Z,73.34
2023-01-29T08:10:46.369Z,73.38
2023-01-29T08:13:13.439Z,73.30
2023-01-29T08:15:40.229Z,73.10
2023-01-29T08:18:07.576Z,73.11
2023-01-29T08:20:35.034Z,72.89
2023-01-29T08:23:06.169Z,72.80
2023-01-29T08:25:33.728Z,72.94
2023-01-29T08:28:01.741Z,72.72
2023-01-29T08:30:29.933Z,72.78
2023-01-29T08:32:56.838Z,72.53
2023-01-29T08:35:24.583Z,72.55
2023-01-29T08:37:56.505Z,72.36
2023-01-29T08:40:23.779Z,72.63
2023-01-29T08:42:50.574Z,72.56
2023-01-29T08:45:18.300Z,72.43
2023-01-29T08:47:49.753Z,72.35
2023-01-29T08:50:17.661Z,72.07
2023-01-29T08:52:45.138Z,72.16
2023-01-29T08:55:13.150Z,72.27
2023-01-29T08:57:40.424Z,72.06
2023-01-29T09:00:09.398Z,72.11
2023-01-29T09:02:36.467Z,72.15
2023-01-29T09:05:03.431Z,72.20
2023-01-29T09:07:31.582Z,72.31
2023-01-29T09:09:58.452Z,72.38
2023-01-29T09:12:25.390Z,72.38
2023-01-29T09:14:52.500Z,72.63
2023-01-29T09:17:19.585Z,72.54
2023-01-29T09:19:46.360Z,72.55
2023-01-29T09:22:13.336Z,72.63
2023-01-29T09:24:40.801Z,72.79
2023-01-29T09:27:07.961Z,72.97
2023-01-29T09:29:37.627Z,72.88
2023-01-29T09:32:04.974Z,72.75
2023-01-29T09:34:33.693Z,72.62
2023-01-29T09:37:00.502Z,72.76
2023-01-29T09:39:27.656Z,72.98
2023-01-29T09:42:01.029Z,74.79
2023-01-29T09:44:35.009Z,76.38
2023-01-29T09:47:05.234Z,75.45
2023-01-29T09:49:37.916Z,75.02
2023-01-29T09:52:12.038Z,74.21
2023-01-29T09:54:49.916Z,74.11
2023-01-29T09:57:23.335Z,74.06
2023-01-29T09:59:50.713Z,73.94
2023-01-29T10:02:37.546Z,73.98
2023-01-29T10:05:24.533Z,73.94
2023-01-29T10:08:34.156Z,74.09
2023-01-29T10:11:08.499Z,74.22
2023-01-29T10:13:49.420Z,74.62
2023-01-29T10:16:29.100Z,74.65
2023-01-29T10:19:34.341Z,74.74
2023-01-29T10:22:14.147Z,74.82
2023-01-29T10:24:45.896Z,75.18
2023-01-29T10:27:18.299Z,75.40
2023-01-29T10:29:48.672Z,75.67
2023-01-29T10:32:19.331Z,75.96
2023-01-29T10:34:51.379Z,76.02
2023-01-29T10:37:21.802Z,76.03
2023-01-29T10:39:48.734Z,76.13
2023-01-29T10:42:30.643Z,76.07
2023-01-29T10:45:20.673Z,76.24
2023-01-29T10:48:04.926Z,76.58
2023-01-29T10:50:42.882Z,76.72
2023-01-29T10:53:28.559Z,76.64
2023-01-29T10:56:10.750Z,76.85
2023-01-29T10:58:49.798Z,76.95
2023-01-29T11:01:17.651Z,76.97
2023-01-29T11:03:45.064Z,76.98
2023-01-29T11:06:17.850Z,76.96
2023-01-29T11:08:52.910Z,77.19
2023-01-29T11:11:22.498Z,77.42
2023-01-29T11:13:57.282Z,77.32
2023-01-29T11:16:24.290Z,77.49
2023-01-29T11:19:00.374Z,77.49
2023-01-29T11:21:29.577Z,77.49
2023-01-29T11:24:12.804Z,77.64
2023-01-29T11:26:42.194Z,77.65
2023-01-29T11:29:38.740Z,77.59
2023-01-29T11:32:07.958Z,77.75
2023-01-29T11:34:34.812Z,77.74
2023-01-29T11:37:03.555Z,77.55
2023-01-29T11:39:32.186Z,77.52
2023-01-29T11:42:01.679Z,77.54
2023-01-29T11:44:36.761Z,77.59
2023-01-29T11:47:14.458Z,77.66
2023-01-29T11:49:46.068Z,77.87
2023-01-29T11:52:15.683Z,77.98
2023-01-29T11:54:50.697Z,78.14
2023-01-29T11:57:36.692Z,78.06
2023-01-29T12:00:07.926Z,78.06
2023-01-29T12:02:40.207Z,78.13
2023-01-29T12:05:16.340Z,78.23
2023-01-29T12:07:45.818Z,78.27
2023-01-29T12:10:33.707Z,78.43
2023-01-29T12:13:20.341Z,78.30
2023-01-29T12:15:48.367Z,78.37
2023-01-29T12:18:24.149Z,78.59
2023-01-29T12:20:58.938Z,78.73
2023-01-29T12:23:36.608Z,78.81
2023-01-29T12:26:10.888Z,78.90
2023-01-29T12:28:47.814Z,78.88
2023-01-29T12:31:30.824Z,78.95
2023-01-29T12:34:04.215Z,79.16
2023-01-29T12:36:37.673Z,79.28
2023-01-29T12:39:05.061Z,79.22
2023-01-29T12:41:45.096Z,79.24
2023-01-29T12:44:19.478Z,79.22
2023-01-29T12:46:52.985Z,79.30
2023-01-29T12:49:24.382Z,79.33
2023-01-29T12:51:59.233Z,79.35
2023-01-29T12:54:33.534Z,79.41
2023-01-29T12:57:05.073Z,79.34
2023-01-29T12:59:38.173Z,79.44
2023-01-29T13:02:16.189Z,79.57
2023-01-29T13:04:47.866Z,79.72
2023-01-29T13:07:23.925Z,79.62
2023-01-29T13:09:56.661Z,80.01
2023-01-29T13:12:27.101Z,80.12
2023-01-29T13:15:01.627Z,80.38
2023-01-29T13:17:33.916Z,80.53
2023-01-29T13:20:06.451Z,80.71
2023-01-29T13:22:38.178Z,80.93
2023-01-29T13:25:06.747Z,81.22
2023-01-29T13:27:36.320Z,81.39
2023-01-29T13:30:04.472Z,81.62
2023-01-29T13:32:36.289Z,81.61
2023-01-29T13:35:07.951Z,81.85
2023-01-29T13:37:41.013Z,82.07
2023-01-29T13:40:20.654Z,82.23
2023-01-29T13:42:50.517Z,82.26
2023-01-29T13:45:24.807Z,82.36
2023-01-29T13:47:53.610Z,82.49
2023-01-29T13:50:31.282Z,82.61
2023-01-29T13:53:02.163Z,82.64
2023-01-29T13:55:32.707Z,82.80
2023-01-29T13:58:01.389Z,82.89
2023-01-29T14:01:01.665Z,83.07
2023-01-29T14:04:03.657Z,83.30
2023-01-29T14:06:45.617Z,83.65
2023-01-29T14:09:57.333Z,83.70
2023-01-29T14:12:51.719Z,83.74
2023-01-29T14:15:30.827Z,83.98
2023-01-29T14:18:25.355Z,84.07
2023-01-29T14:21:07.041Z,84.11
2023-01-29T14:23:51.525Z,84.03
2023-01-29T14:26:34.409Z,84.28
2023-01-29T14:29:06.220Z,84.36
2023-01-29T14:31:38.548Z,84.29
2023-01-29T14:34:09.201Z,84.40
2023-01-29T14:36:43.546Z,84.25
2023-01-29T14:39:25.411Z,84.46
2023-01-29T14:41:54.185Z,84.50
2023-01-29T14:44:58.232Z,84.54
2023-01-29T14:47:55.623Z,84.76
2023-01-29T14:50:49.024Z,84.60
2023-01-29T14:53:22.325Z,84.86
2023-01-29T14:55:55.879Z,84.78
2023-01-29T14:58:29.297Z,84.78
2023-01-29T15:00:59.765Z,84.97
2023-01-29T15:03:37.513Z,84.97
2023-01-29T15:06:05.715Z,85.13
2023-01-29T15:08:40.503Z,85.27
2023-01-29T15:11:33.131Z,85.07
2023-01-29T15:14:23.835Z,85.33
2023-01-29T15:17:00.668Z,85.42
2023-01-29T15:19:35.673Z,85.42
2023-01-29T15:22:10.773Z,85.64
2023-01-29T15:24:38.174Z,85.66
2023-01-29T15:27:07.684Z,85.68
2023-01-29T15:29:35.189Z,85.92
2023-01-29T15:32:04.255Z,85.79
2023-01-29T15:34:31.646Z,86.08
2023-01-29T15:36:59.117Z,86.06
2023-01-29T15:39:28.566Z,86.11
2023-01-29T15:42:13.424Z,86.26
2023-01-29T15:44:47.573Z,86.17
2023-01-29T15:47:17.670Z,86.56
2023-01-29T15:49:47.712Z,86.51
2023-01-29T15:52:21.885Z,86.47
2023-01-29T15:55:02.324Z,86.68
2023-01-29T15:57:37.420Z,86.61
2023-01-29T16:00:05.245Z,86.78
2023-01-29T16:02:42.846Z,86.99
2023-01-29T16:05:15.811Z,86.92
2023-01-29T16:07:43.854Z,86.81
2023-01-29T16:10:18.295Z,86.91
2023-01-29T16:12:47.565Z,87.15
2023-01-29T16:15:22.626Z,87.09
2023-01-29T16:17:50.887Z,87.24
2023-01-29T16:20:34.763Z,87.16
2023-01-29T16:23:02.413Z,87.16
2023-01-29T16:25:31.326Z,87.22
2023-01-29T16:27:58.767Z,87.40
2023-01-29T16:30:29.015Z,87.42
2023-01-29T16:33:01.737Z,87.42
2023-01-29T16:35:28.924Z,87.40
2023-01-29T16:38:04.352Z,87.53
2023-01-29T16:40:33.570Z,87.49
2023-01-29T16:43:22.844Z,87.59
2023-01-29T16:46:04.819Z,87.56
2023-01-29T16:48:34.792Z,87.64
2023-01-29T16:51:13.632Z,87.64
2023-01-29T16:53:40.932Z,87.78
2023-01-29T16:56:10.143Z,87.63
2023-01-29T16:58:37.483Z,87.68
2023-01-29T17:01:09.041Z,87.82
2023-01-29T17:03:37.324Z,87.89
2023-01-29T17:06:14.598Z,87.87
2023-01-29T17:08:44.217Z,87.86
2023-01-29T17:11:12.776Z,87.97
2023-01-29T17:13:43.021Z,88.07
2023-01-29T17:16:27.880Z,88.10
2023-01-29T17:18:55.991Z,88.02
2023-01-29T17:21:24.897Z,88.34
2023-01-29T17:23:51.872Z,88.37
2023-01-29T17:26:19.163Z,88.37
2023-01-29T17:28:47.081Z,88.51
2023-01-29T17:31:13.991Z,88.30
2023-01-29T17:33:44.239Z,88.36
2023-01-29T17:36:14.695Z,88.42
2023-01-29T17:38:42.187Z,88.40
2023-01-29T17:41:13.379Z,88.31
2023-01-29T17:43:40.241Z,88.36
2023-01-29T17:46:07.688Z,88.25
2023-01-29T17:48:34.796Z,88.13
2023-01-29T17:51:04.605Z,88.20
2023-01-29T17:53:45.241Z,88.20
2023-01-29T17:56:21.820Z,88.31
2023-01-29T17:58:48.794Z,88.44
2023-01-29T18:01:15.681Z,88.26
2023-01-29T18:03:42.674Z,88.09
2023-01-29T18:06:12.565Z,88.20
2023-01-29T18:08:40.863Z,88.19
2023-01-29T18:11:08.111Z,88.21
2023-01-29T18:13:36.531Z,88.08
2023-01-29T18:16:03.508Z,88.24
2023-01-29T18:18:30.824Z,88.16
2023-01-29T18:20:57.708Z,88.23
2023-01-29T18:23:24.766Z,88.21
2023-01-29T18:25:52.791Z,88.19
2023-01-29T18:28:20.409Z,88.21
2023-01-29T18:30:48.023Z,88.25
2023-01-29T18:33:15.585Z,88.48
2023-01-29T18:35:44.241Z,88.34
2023-01-29T18:38:11.048Z,88.44
2023-01-29T18:40:38.047Z,88.33
2023-01-29T18:43:05.455Z,88.18
2023-01-29T18:45:32.609Z,88.35
2023-01-29T18:47:59.951Z,88.28
2023-01-29T18:50:27.544Z,88.39
2023-01-29T18:52:55.416Z,88.25
2023-01-29T18:55:22.682Z,88.24
2023-01-29T18:58:28.307Z,88.28
2023-01-29T19:00:40.394Z,88.14
2023-01-29T19:03:07.592Z,88.13
2023-01-29T19:05:37.516Z,88.08
2023-01-29T19:08:12.536Z,88.07
2023-01-29T19:10:40.622Z,87.97
2023-01-29T19:13:07.760Z,88.15
2023-01-29T19:15:35.817Z,88.09
2023-01-29T19:18:04.284Z,87.98
2023-01-29T19:20:31.082Z,88.05
2023-01-29T19:22:58.227Z,88.02
2023-01-29T19:25:25.133Z,88.05
2023-01-29T19:27:52.121Z,87.94
2023-01-29T19:30:20.233Z,87.87
2023-01-29T19:32:47.911Z,88.04
2023-01-29T19:35:14.777Z,87.99
2023-01-29T19:37:41.968Z,87.90
2023-01-29T19:40:10.800Z,87.91
2023-01-29T19:42:38.507Z,87.88
2023-01-29T19:45:10.162Z,87.85
2023-01-29T19:47:41.476Z,87.63
2023-01-29T19:50:10.329Z,87.74
2023-01-29T19:52:50.876Z,87.98
2023-01-29T19:55:19.717Z,87.94
2023-01-29T19:57:47.510Z,87.81
2023-01-29T20:00:17.556Z,87.84
2023-01-29T20:02:44.733Z,87.82
2023-01-29T20:05:13.373Z,88.02
2023-01-29T20:07:42.392Z,87.97
2023-01-29T20:10:18.246Z,87.96
2023-01-29T20:12:46.344Z,88.05
2023-01-29T20:15:13.627Z,88.09
2023-01-29T20:17:40.964Z,88.06
2023-01-29T20:20:09.454Z,88.01
2023-01-29T20:22:36.722Z,88.05
2023-01-29T20:25:03.567Z,88.25
2023-01-29T20:27:31.757Z,87.97
2023-01-29T20:29:59.789Z,88.09
2023-01-29T20:32:26.735Z,88.04
2023-01-29T20:34:53.525Z,88.20
2023-01-29T20:37:20.540Z,88.16
2023-01-29T20:39:47.596Z,88.23
2023-01-29T20:42:14.523Z,88.24
2023-01-29T20:44:42.069Z,88.24
2023-01-29T20:47:09.699Z,88.09
2023-01-29T20:49:36.908Z,88.30
2023-01-29T20:52:03.927Z,88.07
2023-01-29T20:54:33.375Z,88.45
2023-01-29T20:57:00.392Z,88.31
2023-01-29T20:59:29.120Z,88.29
2023-01-29T21:01:56.786Z,88.30
2023-01-29T21:04:24.060Z,88.32
2023-01-29T21:06:51.125Z,88.40
2023-01-29T21:09:18.073Z,88.39
2023-01-29T21:11:45.931Z,88.49
2023-01-29T21:14:14.229Z,88.69
2023-01-29T21:16:41.703Z,88.71
2023-01-29T21:19:08.549Z,88.47
2023-01-29T21:21:37.784Z,88.49
2023-01-29T21:24:05.035Z,88.67
2023-01-29T21:26:32.025Z,88.76
2023-01-29T21:28:59.490Z,88.70
2023-01-29T21:31:26.658Z,88.93
2023-01-29T21:33:53.497Z,89.05
2023-01-29T21:36:20.702Z,88.98
2023-01-29T21:38:47.541Z,88.90
2023-01-29T21:41:14.519Z,89.02
2023-01-29T21:43:41.836Z,88.97
2023-01-29T21:46:12.517Z,88.99
2023-01-29T21:48:39.983Z,89.06
2023-01-29T21:51:07.883Z,89.11
2023-01-29T21:53:35.169Z,88.99
2023-01-29T21:56:04.017Z,89.09
2023-01-29T21:58:30.944Z,89.29
2023-01-29T22:01:36.128Z,89.42
2023-01-29T22:03:47.386Z,89.43
2023-01-29T22:06:14.745Z,89.38
2023-01-29T22:08:41.571Z,89.65
2023-01-29T22:11:10.224Z,89.53
2023-01-29T22:13:37.684Z,89.52
2023-01-29T22:16:06.069Z,89.53
2023-01-29T22:18:32.944Z,89.68
2023-01-29T22:21:02.669Z,89.77
2023-01-29T22:23:29.968Z,89.76
2023-01-29T22:26:03.096Z,89.98
2023-01-29T22:28:30.018Z,90.01
2023-01-29T22:31:01.126Z,89.93
2023-01-29T22:33:28.066Z,90.02
2023-01-29T22:35:57.915Z,89.98
2023-01-29T22:38:24.784Z,90.03
2023-01-29T22:40:53.656Z,90.15
2023-01-29T22:43:25.956Z,90.21
2023-01-29T22:45:53.063Z,90.32
2023-01-29T22:48:20.559Z,90.47
2023-01-29T22:50:53.939Z,90.47
2023-01-29T22:53:24.096Z,90.49
2023-01-29T22:55:57.281Z,90.49
2023-01-29T22:58:24.354Z,90.52
2023-01-29T23:00:53.564Z,90.41
2023-01-29T23:03:20.474Z,90.79
2023-01-29T23:05:47.308Z,90.60
2023-01-29T23:08:14.660Z,90.64
2023-01-29T23:10:43.223Z,90.50
2023-01-29T23:13:09.980Z,90.65
2023-01-29T23:15:36.826Z,90.74
2023-01-29T23:18:03.680Z,90.69
2023-01-29T23:20:30.593Z,90.79
2023-01-29T23:22:57.625Z,90.63
2023-01-29T23:25:44.889Z,90.67
2023-01-29T23:28:10.239Z,90.51
2023-01-29T23:30:37.358Z,90.70
2023-01-29T23:33:04.620Z,90.64
2023-01-29T23:35:31.639Z,90.53
2023-01-29T23:37:58.893Z,90.44
2023-01-29T23:40:25.698Z,90.49
2023-01-29T23:42:52.567Z,90.37
2023-01-29T23:45:19.309Z,90.30
2023-01-29T23:47:46.199Z,90.10
2023-01-29T23:50:14.734Z,90.20
2023-01-29T23:52:41.661Z,90.10
2023-01-29T23:55:10.596Z,90.17
2023-01-29T23:57:37.776Z,90.22
